sensor_id;sensor_type;location;lat;lon;timestamp;pressure;altitude;pressure_sealevel;temperature;humidity
47815;BME280;33579;50.058;18.130;2023-02-02T00:00:48;98500.03;;;2.86;100.00
47815;BME280;33579;50.058;18.130;2023-02-02T00:01:51;98499.38;;;2.83;100.00
47815;BME280;33579;50.058;18.130;2023-02-02T00:02:53;98489.00;;;2.83;100.00
47815;BME280;33579;50.058;18.130;2023-02-02T00:03:55;98488.91;;;2.84;100.00
47815;BME280;33579;50.058;18.130;2023-02-02T00:04:57;98502.63;;;2.86;100.00
47815;BME280;33579;50.058;18.130;2023-02-02T00:05:59;98496.50;;;2.87;100.00
47815;BME280;33579;50.058;18.130;2023-02-02T00:07:01;98501.69;;;2.87;100.00
47815;BME280;33579;50.058;18.130;2023-02-02T00:08:03;98493.88;;;2.87;100.00
47815;BME280;33579;50.058;18.130;2023-02-02T00:09:05;98495.56;;;2.88;100.00
47815;BME280;33579;50.058;18.130;2023-02-02T00:10:07;98497.59;;;2.83;100.00
47815;BME280;33579;50.058;18.130;2023-02-02T00:11:09;98497.50;;;2.85;100.00
47815;BME280;33579;50.058;18.130;2023-02-02T00:12:10;98487.97;;;2.85;100.00
47815;BME280;33579;50.058;18.130;2023-02-02T00:13:12;98493.34;;;2.82;100.00
47815;BME280;33579;50.058;18.130;2023-02-02T00:14:14;98501.91;;;2.84;100.00
47815;BME280;33579;50.058;18.130;2023-02-02T00:15:16;98500.75;;;2.88;100.00
47815;BME280;33579;50.058;18.130;2023-02-02T00:17:31;98500.97;;;2.85;100.00
47815;BME280;33579;50.058;18.130;2023-02-02T00:18:33;98498.38;;;2.85;100.00
47815;BME280;33579;50.058;18.130;2023-02-02T00:19:34;98496.56;;;2.86;100.00
47815;BME280;33579;50.058;18.130;2023-02-02T00:20:36;98482.78;;;2.85;100.00
47815;BME280;33579;50.058;18.130;2023-02-02T00:21:38;98497.81;;;2.80;100.00
47815;BME280;33579;50.058;18.130;2023-02-02T00:22:39;98497.94;;;2.78;100.00
47815;BME280;33579;50.058;18.130;2023-02-02T00:23:41;98497.19;;;2.76;100.00
47815;BME280;33579;50.058;18.130;2023-02-02T00:24:42;98496.88;;;2.81;100.00
47815;BME280;33579;50.058;18.130;2023-02-02T00:25:44;98497.50;;;2.85;100.00
47815;BME280;33579;50.058;18.130;2023-02-02T00:26:53;98489.94;;;2.81;100.00
47815;BME280;33579;50.058;18.130;2023-02-02T00:27:56;98498.53;;;2.82;100.00
47815;BME280;33579;50.058;18.130;2023-02-02T00:28:57;98492.41;;;2.83;100.00
47815;BME280;33579;50.058;18.130;2023-02-02T00:29:59;98495.22;;;2.80;100.00
47815;BME280;33579;50.058;18.130;2023-02-02T00:31:01;98499.78;;;2.76;100.00
47815;BME280;33579;50.058;18.130;2023-02-02T00:32:02;98497.94;;;2.78;100.00
47815;BME280;33579;50.058;18.130;2023-02-02T00:33:04;98495.72;;;2.72;100.00
47815;BME280;33579;50.058;18.130;2023-02-02T00:34:06;98494.50;;;2.78;100.00
47815;BME280;33579;50.058;18.130;2023-02-02T00:35:08;98500.63;;;2.77;100.00
47815;BME280;33579;50.058;18.130;2023-02-02T00:36:09;98498.75;;;2.79;100.00
47815;BME280;33579;50.058;18.130;2023-02-02T00:37:11;98501.06;;;2.84;100.00
47815;BME280;33579;50.058;18.130;2023-02-02T00:38:12;98497.94;;;2.78;100.00
47815;BME280;33579;50.058;18.130;2023-02-02T00:39:21;98505.59;;;2.80;100.00
47815;BME280;33579;50.058;18.130;2023-02-02T00:40:23;98508.41;;;2.77;100.00
47815;BME280;33579;50.058;18.130;2023-02-02T00:41:24;98503.22;;;2.77;100.00
47815;BME280;33579;50.058;18.130;2023-02-02T00:42:26;98512.59;;;2.79;100.00
47815;BME280;33579;50.058;18.130;2023-02-02T00:43:27;98505.72;;;2.78;100.00
47815;BME280;33579;50.058;18.130;2023-02-02T00:44:29;98508.94;;;2.82;100.00
47815;BME280;33579;50.058;18.130;2023-02-02T00:45:31;98512.38;;;2.83;100.00
47815;BME280;33579;50.058;18.130;2023-02-02T00:46:32;98509.34;;;2.89;100.00
47815;BME280;33579;50.058;18.130;2023-02-02T00:47:34;98512.06;;;2.87;100.00
47815;BME280;33579;50.058;18.130;2023-02-02T00:48:36;98511.03;;;2.90;100.00
47815;BME280;33579;50.058;18.130;2023-02-02T00:49:37;98513.00;;;2.86;100.00
47815;BME280;33579;50.058;18.130;2023-02-02T00:50:39;98522.56;;;2.86;100.00
47815;BME280;33579;50.058;18.130;2023-02-02T00:51:40;98518.38;;;2.83;100.00
47815;BME280;33579;50.058;18.130;2023-02-02T00:52:42;98518.22;;;2.86;100.00
47815;BME280;33579;50.058;18.130;2023-02-02T00:53:44;98512.16;;;2.86;100.00
47815;BME280;33579;50.058;18.130;2023-02-02T00:54:45;98519.25;;;2.84;100.00
47815;BME280;33579;50.058;18.130;2023-02-02T00:55:47;98511.00;;;2.77;100.00
47815;BME280;33579;50.058;18.130;2023-02-02T00:56:48;98518.81;;;2.77;100.00
47815;BME280;33579;50.058;18.130;2023-02-02T00:57:50;98519.97;;;2.73;100.00
47815;BME280;33579;50.058;18.130;2023-02-02T00:58:54;98514.84;;;2.71;100.00
47815;BME280;33579;50.058;18.130;2023-02-02T00:59:57;98517.53;;;2.70;100.00
47815;BME280;33579;50.058;18.130;2023-02-02T01:00:58;98510.28;;;2.75;100.00
47815;BME280;33579;50.058;18.130;2023-02-02T01:02:00;98514.22;;;2.67;100.00
47815;BME280;33579;50.058;18.130;2023-02-02T01:03:03;98518.69;;;2.65;100.00
47815;BME280;33579;50.058;18.130;2023-02-02T01:04:05;98517.66;;;2.68;100.00
47815;BME280;33579;50.058;18.130;2023-02-02T01:05:07;98519.19;;;2.71;100.00
47815;BME280;33579;50.058;18.130;2023-02-02T01:06:09;98520.97;;;2.70;100.00
47815;BME280;33579;50.058;18.130;2023-02-02T01:07:11;98517.44;;;2.71;100.00
47815;BME280;33579;50.058;18.130;2023-02-02T01:08:12;98519.09;;;2.72;100.00
47815;BME280;33579;50.058;18.130;2023-02-02T01:09:14;98520.78;;;2.73;100.00
47815;BME280;33579;50.058;18.130;2023-02-02T01:10:17;98521.63;;;2.74;100.00
47815;BME280;33579;50.058;18.130;2023-02-02T01:11:18;98527.63;;;2.74;100.00
47815;BME280;33579;50.058;18.130;2023-02-02T01:12:20;98524.50;;;2.69;100.00
47815;BME280;33579;50.058;18.130;2023-02-02T01:13:22;98520.88;;;2.72;100.00
47815;BME280;33579;50.058;18.130;2023-02-02T01:14:24;98524.22;;;2.74;100.00
47815;BME280;33579;50.058;18.130;2023-02-02T01:15:26;98524.94;;;2.76;100.00
47815;BME280;33579;50.058;18.130;2023-02-02T01:16:27;98531.78;;;2.77;100.00
47815;BME280;33579;50.058;18.130;2023-02-02T01:17:29;98532.53;;;2.79;100.00
47815;BME280;33579;50.058;18.130;2023-02-02T01:18:32;98531.59;;;2.80;100.00
47815;BME280;33579;50.058;18.130;2023-02-02T01:19:34;98529.94;;;2.79;100.00
47815;BME280;33579;50.058;18.130;2023-02-02T01:20:35;98530.88;;;2.78;100.00
47815;BME280;33579;50.058;18.130;2023-02-02T01:21:37;98528.25;;;2.78;100.00
47815;BME280;33579;50.058;18.130;2023-02-02T01:22:38;98530.22;;;2.74;100.00
47815;BME280;33579;50.058;18.130;2023-02-02T01:23:40;98531.16;;;2.73;100.00
47815;BME280;33579;50.058;18.130;2023-02-02T01:24:42;98530.13;;;2.76;100.00
47815;BME280;33579;50.058;18.130;2023-02-02T01:25:44;98530.13;;;2.76;100.00
47815;BME280;33579;50.058;18.130;2023-02-02T01:26:46;98535.41;;;2.74;100.00
47815;BME280;33579;50.058;18.130;2023-02-02T01:27:48;98536.47;;;2.72;100.00
47815;BME280;33579;50.058;18.130;2023-02-02T01:28:49;98536.16;;;2.76;100.00
47815;BME280;33579;50.058;18.130;2023-02-02T01:29:51;98530.88;;;2.78;100.00
47815;BME280;33579;50.058;18.130;2023-02-02T01:30:53;98526.91;;;2.72;100.00
47815;BME280;33579;50.058;18.130;2023-02-02T01:31:55;98532.72;;;2.76;100.00
47815;BME280;33579;50.058;18.130;2023-02-02T01:32:58;98535.13;;;2.79;100.00
47815;BME280;33579;50.058;18.130;2023-02-02T01:34:00;98544.38;;;2.83;100.00
47815;BME280;33579;50.058;18.130;2023-02-02T01:35:03;98539.38;;;2.80;100.00
47815;BME280;33579;50.058;18.130;2023-02-02T01:36:12;98530.88;;;2.78;100.00
47815;BME280;33579;50.058;18.130;2023-02-02T01:37:14;98541.16;;;2.79;100.00
47815;BME280;33579;50.058;18.130;2023-02-02T01:38:17;98535.97;;;2.79;100.00
47815;BME280;33579;50.058;18.130;2023-02-02T01:39:19;98535.97;;;2.79;100.00
47815;BME280;33579;50.058;18.130;2023-02-02T01:40:20;98538.44;;;2.81;100.00
47815;BME280;33579;50.058;18.130;2023-02-02T01:41:23;98536.50;;;2.85;100.00
47815;BME280;33579;50.058;18.130;2023-02-02T01:42:25;98541.59;;;2.86;100.00
47815;BME280;33579;50.058;18.130;2023-02-02T01:46:03;98534.41;;;2.77;100.00
47815;BME280;33579;50.058;18.130;2023-02-02T01:47:04;98536.16;;;2.76;100.00
47815;BME280;33579;50.058;18.130;2023-02-02T01:48:06;98538.56;;;2.79;100.00
47815;BME280;33579;50.058;18.130;2023-02-02T01:49:15;98538.56;;;2.79;100.00
47815;BME280;33579;50.058;18.130;2023-02-02T01:50:22;98549.56;;;2.83;100.00
47815;BME280;33579;50.058;18.130;2023-02-02T01:51:39;98545.22;;;2.84;100.00
47815;BME280;33579;50.058;18.130;2023-02-02T01:52:45;98544.50;;;2.81;100.00
47815;BME280;33579;50.058;18.130;2023-02-02T01:53:48;98554.03;;;2.81;100.00
47815;BME280;33579;50.058;18.130;2023-02-02T01:54:55;98545.22;;;2.84;100.00
47815;BME280;33579;50.058;18.130;2023-02-02T01:55:58;98544.28;;;2.85;100.00
47815;BME280;33579;50.058;18.130;2023-02-02T01:57:14;98541.03;;;2.81;100.00
47815;BME280;33579;50.058;18.130;2023-02-02T01:58:21;98540.97;;;2.83;100.00
47815;BME280;33579;50.058;18.130;2023-02-02T01:59:24;98546.88;;;2.85;100.00
47815;BME280;33579;50.058;18.130;2023-02-02T02:00:27;98536.06;;;2.78;100.00
47815;BME280;33579;50.058;18.130;2023-02-02T02:01:28;98539.69;;;2.75;100.00
47815;BME280;33579;50.058;18.130;2023-02-02T02:02:30;98541.88;;;2.81;100.00
47815;BME280;33579;50.058;18.130;2023-02-02T02:03:35;98548.53;;;2.86;100.00
47815;BME280;33579;50.058;18.130;2023-02-02T02:04:37;98541.38;;;2.89;100.00
47815;BME280;33579;50.058;18.130;2023-02-02T02:06:09;98533.88;;;2.85;100.00
47815;BME280;33579;50.058;18.130;2023-02-02T02:07:12;98538.16;;;2.86;100.00
47815;BME280;33579;50.058;18.130;2023-02-02T02:08:20;98544.38;;;2.83;100.00
47815;BME280;33579;50.058;18.130;2023-02-02T02:09:22;98539.94;;;2.85;100.00
47815;BME280;33579;50.058;18.130;2023-02-02T02:10:23;98543.34;;;2.86;100.00
47815;BME280;33579;50.058;18.130;2023-02-02T02:11:26;98539.19;;;2.83;100.00
47815;BME280;33579;50.058;18.130;2023-02-02T02:12:27;98538.06;;;2.87;100.00
47815;BME280;33579;50.058;18.130;2023-02-02T02:13:30;98545.94;;;2.86;100.00
47815;BME280;33579;50.058;18.130;2023-02-02T02:14:32;98536.06;;;2.78;100.00
47815;BME280;33579;50.058;18.130;2023-02-02T02:15:40;98539.09;;;2.85;100.00
47815;BME280;33579;50.058;18.130;2023-02-02T02:17:02;98542.63;;;2.84;100.00
47815;BME280;33579;50.058;18.130;2023-02-02T02:18:29;98544.06;;;2.88;100.00
47815;BME280;33579;50.058;18.130;2023-02-02T02:22:12;98554.91;;;2.94;100.00
47815;BME280;33579;50.058;18.130;2023-02-02T02:23:32;98560.00;;;2.96;100.00
47815;BME280;33579;50.058;18.130;2023-02-02T02:26:46;98561.03;;;2.93;100.00
47815;BME280;33579;50.058;18.130;2023-02-02T02:27:47;98570.69;;;2.91;100.00
47815;BME280;33579;50.058;18.130;2023-02-02T02:29:14;98576.44;;;2.97;100.00
47815;BME280;33579;50.058;18.130;2023-02-02T02:32:07;98579.75;;;2.99;100.00
47815;BME280;33579;50.058;18.130;2023-02-02T02:33:26;98581.44;;;3.00;100.00
47815;BME280;33579;50.058;18.130;2023-02-02T02:34:42;98584.84;;;3.00;100.00
47815;BME280;33579;50.058;18.130;2023-02-02T02:36:01;98579.66;;;3.00;100.00
47815;BME280;33579;50.058;18.130;2023-02-02T02:38:53;98582.66;;;3.07;100.00
47815;BME280;33579;50.058;18.130;2023-02-02T02:41:31;98580.28;;;3.04;100.00
47815;BME280;33579;50.058;18.130;2023-02-02T02:42:42;98583.81;;;3.03;100.00
47815;BME280;33579;50.058;18.130;2023-02-02T02:43:54;98590.03;;;3.00;100.00
47815;BME280;33579;50.058;18.130;2023-02-02T02:45:00;98580.88;;;2.94;100.00
47815;BME280;33579;50.058;18.130;2023-02-02T02:46:04;98585.69;;;3.01;100.00
47815;BME280;33579;50.058;18.130;2023-02-02T02:47:06;98592.34;;;3.05;100.00
47815;BME280;33579;50.058;18.130;2023-02-02T02:48:09;98593.06;;;3.07;100.00
47815;BME280;33579;50.058;18.130;2023-02-02T02:49:11;98595.88;;;3.04;100.00
47815;BME280;33579;50.058;18.130;2023-02-02T02:50:14;98598.47;;;3.04;100.00
47815;BME280;33579;50.058;18.130;2023-02-02T02:51:41;98598.25;;;3.07;100.00
47815;BME280;33579;50.058;18.130;2023-02-02T02:52:46;98588.94;;;3.04;100.00
47815;BME280;33579;50.058;18.130;2023-02-02T02:53:49;98597.25;;;3.09;100.00
47815;BME280;33579;50.058;18.130;2023-02-02T02:54:53;98593.41;;;3.15;100.00
47815;BME280;33579;50.058;18.130;2023-02-02T02:56:21;98594.13;;;3.17;100.00
47815;BME280;33579;50.058;18.130;2023-02-02T03:00:35;98594.84;;;3.06;100.00
47815;BME280;33579;50.058;18.130;2023-02-02T03:01:51;98589.94;;;3.02;100.00
47815;BME280;33579;50.058;18.130;2023-02-02T03:03:07;98585.78;;;2.99;100.00
47815;BME280;33579;50.058;18.130;2023-02-02T03:04:34;98589.09;;;3.01;100.00
47815;BME280;33579;50.058;18.130;2023-02-02T03:06:40;98587.06;;;3.06;100.00
47815;BME280;33579;50.058;18.130;2023-02-02T03:07:28;98590.38;;;3.08;100.00
47815;BME280;33579;50.058;18.130;2023-02-02T03:08:38;98586.53;;;3.14;100.00
47815;BME280;33579;50.058;18.130;2023-02-02T03:09:42;98592.91;;;3.23;100.00
47815;BME280;33579;50.058;18.130;2023-02-02T03:10:45;98591.31;;;3.20;100.00
47815;BME280;33579;50.058;18.130;2023-02-02T03:11:47;98589.88;;;3.16;100.00
47815;BME280;33579;50.058;18.130;2023-02-02T03:12:50;98588.50;;;3.11;100.00
47815;BME280;33579;50.058;18.130;2023-02-02T03:13:52;98589.22;;;3.13;100.00
47815;BME280;33579;50.058;18.130;2023-02-02T03:14:53;98588.94;;;3.17;100.00
47815;BME280;33579;50.058;18.130;2023-02-02T03:15:55;98591.44;;;3.19;100.00
47815;BME280;33579;50.058;18.130;2023-02-02T03:16:56;98594.13;;;3.17;100.00
47815;BME280;33579;50.058;18.130;2023-02-02T03:17:58;98594.03;;;3.19;100.00
47815;BME280;33579;50.058;18.130;2023-02-02T03:19:00;98594.75;;;3.21;100.00
47815;BME280;33579;50.058;18.130;2023-02-02T03:20:02;98591.13;;;3.23;100.00
47815;BME280;33579;50.058;18.130;2023-02-02T03:21:04;98596.44;;;3.22;100.00
47815;BME280;33579;50.058;18.130;2023-02-02T03:22:05;98595.78;;;3.18;100.00
47815;BME280;33579;50.058;18.130;2023-02-02T03:23:07;98593.41;;;3.15;100.00
47815;BME280;33579;50.058;18.130;2023-02-02T03:24:08;98589.22;;;3.13;100.00
47815;BME280;33579;50.058;18.130;2023-02-02T03:25:10;98596.00;;;3.15;100.00
47815;BME280;33579;50.058;18.130;2023-02-02T03:26:12;98589.34;;;3.11;100.00
47815;BME280;33579;50.058;18.130;2023-02-02T03:27:13;98596.41;;;3.09;100.00
47815;BME280;33579;50.058;18.130;2023-02-02T03:28:16;98597.03;;;3.00;100.00
47815;BME280;33579;50.058;18.130;2023-02-02T03:29:18;98594.00;;;3.06;100.00
47815;BME280;33579;50.058;18.130;2023-02-02T03:30:21;98593.06;;;3.07;100.00
47815;BME280;33579;50.058;18.130;2023-02-02T03:31:24;98599.13;;;3.07;100.00
47815;BME280;33579;50.058;18.130;2023-02-02T03:32:27;98595.16;;;3.02;100.00
47815;BME280;33579;50.058;18.130;2023-02-02T03:33:29;98594.00;;;3.06;100.00
47815;BME280;33579;50.058;18.130;2023-02-02T03:34:32;98597.25;;;3.09;100.00
47815;BME280;33579;50.058;18.130;2023-02-02T03:35:33;98600.78;;;3.08;100.00
47815;BME280;33579;50.058;18.130;2023-02-02T03:36:35;98594.84;;;3.06;100.00
47815;BME280;33579;50.058;18.130;2023-02-02T03:37:36;98598.47;;;3.04;100.00
47815;BME280;33579;50.058;18.130;2023-02-02T03:38:38;98608.06;;;3.03;100.00
47815;BME280;33579;50.058;18.130;2023-02-02T03:39:40;98607.00;;;3.06;100.00
47815;BME280;33579;50.058;18.130;2023-02-02T03:40:41;98602.84;;;3.03;100.00
47815;BME280;33579;50.058;18.130;2023-02-02T03:41:43;98600.13;;;3.05;100.00
47815;BME280;33579;50.058;18.130;2023-02-02T03:42:44;98606.56;;;2.99;100.00
47815;BME280;33579;50.058;18.130;2023-02-02T03:43:46;98600.34;;;3.02;100.00
47815;BME280;33579;50.058;18.130;2023-02-02T03:44:47;98600.44;;;3.00;100.00
47815;BME280;33579;50.058;18.130;2023-02-02T03:46:00;98603.97;;;2.99;100.00
47815;BME280;33579;50.058;18.130;2023-02-02T03:47:02;98608.22;;;3.00;100.00
47815;BME280;33579;50.058;18.130;2023-02-02T03:48:03;98602.94;;;3.02;100.00
47815;BME280;33579;50.058;18.130;2023-02-02T03:49:05;98602.84;;;3.03;100.00
47815;BME280;33579;50.058;18.130;2023-02-02T03:50:08;98611.56;;;3.02;100.00
47815;BME280;33579;50.058;18.130;2023-02-02T03:51:12;98607.00;;;3.06;100.00
47815;BME280;33579;50.058;18.130;2023-02-02T03:52:14;98606.06;;;3.07;100.00
47815;BME280;33579;50.058;18.130;2023-02-02T03:53:15;98602.84;;;3.03;100.00
47815;BME280;33579;50.058;18.130;2023-02-02T03:54:17;98597.75;;;3.02;100.00
47815;BME280;33579;50.058;18.130;2023-02-02T03:55:19;98591.91;;;2.98;100.00
47815;BME280;33579;50.058;18.130;2023-02-02T03:56:20;98596.69;;;2.91;100.00
47815;BME280;33579;50.058;18.130;2023-02-02T03:57:22;98586.56;;;2.87;100.00
47815;BME280;33579;50.058;18.130;2023-02-02T03:58:23;98588.16;;;2.89;100.00
47815;BME280;33579;50.058;18.130;2023-02-02T03:59:25;98590.53;;;2.92;100.00
47815;BME280;33579;50.058;18.130;2023-02-02T04:00:26;98586.06;;;2.94;100.00
47815;BME280;33579;50.058;18.130;2023-02-02T04:01:29;98581.81;;;2.93;100.00
47815;BME280;33579;50.058;18.130;2023-02-02T04:02:30;98587.22;;;2.90;100.00
47815;BME280;33579;50.058;18.130;2023-02-02T04:03:32;98579.72;;;2.86;100.00
47815;BME280;33579;50.058;18.130;2023-02-02T04:04:34;98577.84;;;2.88;100.00
47815;BME280;33579;50.058;18.130;2023-02-02T04:05:36;98566.94;;;2.83;100.00
47815;BME280;33579;50.058;18.130;2023-02-02T04:06:37;98566.84;;;2.84;100.00
47815;BME280;33579;50.058;18.130;2023-02-02T04:07:39;98566.00;;;2.84;100.00
47815;BME280;33579;50.058;18.130;2023-02-02T04:08:40;98580.66;;;2.85;100.00
47815;BME280;33579;50.058;18.130;2023-02-02T04:09:42;98578.06;;;2.85;100.00
47815;BME280;33579;50.058;18.130;2023-02-02T04:10:43;98571.19;;;2.84;100.00
47815;BME280;33579;50.058;18.130;2023-02-02T04:11:45;98569.91;;;2.76;100.00
47815;BME280;33579;50.058;18.130;2023-02-02T04:12:46;98574.59;;;2.71;100.00
47815;BME280;33579;50.058;18.130;2023-02-02T04:13:48;98567.66;;;2.72;100.00
47815;BME280;33579;50.058;18.130;2023-02-02T04:14:50;98563.06;;;2.75;100.00
47815;BME280;33579;50.058;18.130;2023-02-02T04:16:00;98560.59;;;2.74;100.00
47815;BME280;33579;50.058;18.130;2023-02-02T04:17:02;98560.75;;;2.71;100.00
47815;BME280;33579;50.058;18.130;2023-02-02T04:18:04;98562.31;;;2.60;100.00
47815;BME280;33579;50.058;18.130;2023-02-02T04:19:05;98562.31;;;2.60;100.00
47815;BME280;33579;50.058;18.130;2023-02-02T04:20:07;98564.69;;;2.63;100.00
47815;BME280;33579;50.058;18.130;2023-02-02T04:21:09;98563.84;;;2.63;100.00
47815;BME280;33579;50.058;18.130;2023-02-02T04:22:11;98565.50;;;2.64;100.00
47815;BME280;33579;50.058;18.130;2023-02-02T04:23:12;98551.94;;;2.73;100.00
47815;BME280;33579;50.058;18.130;2023-02-02T04:24:14;98558.72;;;2.76;100.00
47815;BME280;33579;50.058;18.130;2023-02-02T04:25:16;98562.97;;;2.77;100.00
47815;BME280;33579;50.058;18.130;2023-02-02T04:26:17;98560.47;;;2.75;100.00
47815;BME280;33579;50.058;18.130;2023-02-02T04:27:19;98558.91;;;2.73;100.00
47815;BME280;33579;50.058;18.130;2023-02-02T04:28:20;98558.72;;;2.76;100.00
47815;BME280;33579;50.058;18.130;2023-02-02T04:29:22;98552.22;;;2.69;100.00
47815;BME280;33579;50.058;18.130;2023-02-02T04:30:24;98556.50;;;2.70;100.00
47815;BME280;33579;50.058;18.130;2023-02-02T04:31:25;98563.69;;;2.66;100.00
47815;BME280;33579;50.058;18.130;2023-02-02T04:32:27;98562.75;;;2.67;100.00
47815;BME280;33579;50.058;18.130;2023-02-02T04:33:29;98564.50;;;2.66;100.00
47815;BME280;33579;50.058;18.130;2023-02-02T04:34:31;98567.81;;;2.69;100.00
47815;BME280;33579;50.058;18.130;2023-02-02T04:35:32;98565.44;;;2.65;100.00
47815;BME280;33579;50.058;18.130;2023-02-02T04:36:34;98563.69;;;2.66;100.00
47815;BME280;33579;50.058;18.130;2023-02-02T04:37:35;98567.94;;;2.67;100.00
47815;BME280;33579;50.058;18.130;2023-02-02T04:38:37;98564.13;;;2.73;100.00
47815;BME280;33579;50.058;18.130;2023-02-02T04:39:38;98560.97;;;2.67;100.00
47815;BME280;33579;50.058;18.130;2023-02-02T04:40:41;98566.16;;;2.67;100.00
47815;BME280;33579;50.058;18.130;2023-02-02T04:41:43;98567.09;;;2.66;100.00
47815;BME280;33579;50.058;18.130;2023-02-02T04:42:45;98571.34;;;2.67;100.00
47815;BME280;33579;50.058;18.130;2023-02-02T04:43:46;98572.25;;;2.53;100.00
47815;BME280;33579;50.058;18.130;2023-02-02T04:44:48;98572.13;;;2.55;100.00
47815;BME280;33579;50.058;18.130;2023-02-02T04:45:55;98567.78;;;2.56;100.00
47815;BME280;33579;50.058;18.130;2023-02-02T04:46:57;98568.81;;;2.53;100.00
47815;BME280;33579;50.058;18.130;2023-02-02T04:47:58;98567.88;;;2.54;100.00
47815;BME280;33579;50.058;18.130;2023-02-02T04:49:00;98564.63;;;2.50;100.00
47815;BME280;33579;50.058;18.130;2023-02-02T04:50:02;98577.53;;;2.52;100.00
47815;BME280;33579;50.058;18.130;2023-02-02T04:51:06;98566.59;;;2.47;100.00
47815;BME280;33579;50.058;18.130;2023-02-02T04:52:09;98579.28;;;2.51;100.00
47815;BME280;33579;50.058;18.130;2023-02-02T04:53:11;98575.59;;;2.56;100.00
47815;BME280;33579;50.058;18.130;2023-02-02T04:54:13;98570.38;;;2.56;100.00
47815;BME280;33579;50.058;18.130;2023-02-02T04:55:15;98562.59;;;2.56;100.00
47815;BME280;33579;50.058;18.130;2023-02-02T04:56:17;98562.78;;;2.52;100.00
47815;BME280;33579;50.058;18.130;2023-02-02T04:57:19;98565.25;;;2.41;100.00
47815;BME280;33579;50.058;18.130;2023-02-02T04:58:21;98573.31;;;2.36;100.00
47815;BME280;33579;50.058;18.130;2023-02-02T04:59:23;98565.63;;;2.35;100.00
47815;BME280;33579;50.058;18.130;2023-02-02T05:00:24;98560.72;;;2.30;100.00
47815;BME280;33579;50.058;18.130;2023-02-02T05:01:26;98562.59;;;2.28;100.00
47815;BME280;33579;50.058;18.130;2023-02-02T05:02:28;98558.97;;;2.31;100.00
47815;BME280;33579;50.058;18.130;2023-02-02T05:03:29;98556.16;;;2.34;100.00
47815;BME280;33579;50.058;18.130;2023-02-02T05:04:31;98559.34;;;2.24;100.00
47815;BME280;33579;50.058;18.130;2023-02-02T05:05:32;98555.94;;;2.24;100.00
47815;BME280;33579;50.058;18.130;2023-02-02T05:06:34;98558.53;;;2.24;100.00
47815;BME280;33579;50.058;18.130;2023-02-02T05:07:35;98551.84;;;2.20;100.00
47815;BME280;33579;50.058;18.130;2023-02-02T05:08:37;98559.63;;;2.20;100.00
47815;BME280;33579;50.058;18.130;2023-02-02T05:09:39;98558.06;;;2.17;100.00
47815;BME280;33579;50.058;18.130;2023-02-02T05:10:41;98555.94;;;2.09;100.00
47815;BME280;33579;50.058;18.130;2023-02-02T05:11:42;98562.97;;;2.07;100.00
47815;BME280;33579;50.058;18.130;2023-02-02T05:12:44;98563.91;;;2.06;100.00
47815;BME280;33579;50.058;18.130;2023-02-02T05:13:47;98559.28;;;2.12;100.00
47815;BME280;33579;50.058;18.130;2023-02-02T05:14:49;98560.03;;;2.14;100.00
47815;BME280;33579;50.058;18.130;2023-02-02T05:15:50;98557.72;;;2.09;100.00
47815;BME280;33579;50.058;18.130;2023-02-02T05:16:52;98558.63;;;2.08;100.00
47815;BME280;33579;50.058;18.130;2023-02-02T05:17:53;98556.78;;;2.10;100.00
47815;BME280;33579;50.058;18.130;2023-02-02T05:18:55;98556.03;;;2.08;100.00
47815;BME280;33579;50.058;18.130;2023-02-02T05:19:57;98555.41;;;2.04;100.00
47815;BME280;33579;50.058;18.130;2023-02-02T05:20:59;98558.56;;;1.95;100.00
47815;BME280;33579;50.058;18.130;2023-02-02T05:22:01;98557.53;;;1.98;100.00
47815;BME280;33579;50.058;18.130;2023-02-02T05:23:03;98553.19;;;1.98;100.00
47815;BME280;33579;50.058;18.130;2023-02-02T05:24:04;98554.66;;;2.02;100.00
47815;BME280;33579;50.058;18.130;2023-02-02T05:25:07;98557.34;;;2.01;100.00
47815;BME280;33579;50.058;18.130;2023-02-02T05:26:18;98561.59;;;2.02;100.00
47815;BME280;33579;50.058;18.130;2023-02-02T05:27:21;98567.56;;;2.04;100.00
47815;BME280;33579;50.058;18.130;2023-02-02T05:28:23;98564.19;;;2.02;100.00
47815;BME280;33579;50.058;18.130;2023-02-02T05:29:26;98562.44;;;2.02;100.00
47815;BME280;33579;50.058;18.130;2023-02-02T05:30:27;98559.66;;;2.05;100.00
47815;BME280;33579;50.058;18.130;2023-02-02T05:31:29;98561.31;;;2.06;100.00
47815;BME280;33579;50.058;18.130;2023-02-02T05:32:31;98575.16;;;2.07;100.00
47815;BME280;33579;50.058;18.130;2023-02-02T05:33:32;98565.69;;;2.06;100.00
47815;BME280;33579;50.058;18.130;2023-02-02T05:34:34;98559.66;;;2.05;100.00
47815;BME280;33579;50.058;18.130;2023-02-02T05:35:36;98561.50;;;2.03;100.00
47815;BME280;33579;50.058;18.130;2023-02-02T05:36:37;98567.34;;;2.07;100.00
47815;BME280;33579;50.058;18.130;2023-02-02T05:37:41;98567.34;;;2.07;100.00
47815;BME280;33579;50.058;18.130;2023-02-02T05:38:43;98569.94;;;2.07;100.00
47815;BME280;33579;50.058;18.130;2023-02-02T05:39:44;98571.25;;;2.00;100.00
47815;BME280;33579;50.058;18.130;2023-02-02T05:40:47;98562.53;;;2.01;100.00
47815;BME280;33579;50.058;18.130;2023-02-02T05:41:49;98558.72;;;2.06;100.00
47815;BME280;33579;50.058;18.130;2023-02-02T05:42:51;98571.50;;;2.09;100.00
47815;BME280;33579;50.058;18.130;2023-02-02T05:43:52;98561.31;;;2.06;100.00
47815;BME280;33579;50.058;18.130;2023-02-02T05:44:54;98563.63;;;2.11;100.00
47815;BME280;33579;50.058;18.130;2023-02-02T05:45:56;98568.00;;;2.10;100.00
47815;BME280;33579;50.058;18.130;2023-02-02T05:46:57;98562.63;;;2.14;100.00
47815;BME280;33579;50.058;18.130;2023-02-02T05:47:59;98559.00;;;2.16;100.00
47815;BME280;33579;50.058;18.130;2023-02-02T05:49:00;98561.28;;;2.21;100.00